Latest Weather Observations for Tunnack

IDT60801

Issued at 5:01 pm EST Tuesday 26 May 2015 (issued every 30 minutes, with the page automatically refreshed every 10 minutes)

About weather observations | Map of weather stations | Latest weather observations for TAS | Other Formats
Station Details ID: 094195 Name: TUNNACK FIRE STATION Lat: -42.45 Lon: 147.46 Height: 461.5 m
Data from the previous 72 hours. | See also: Recent months at Tunnack
Date/Time
EST
Temp
°C
App
Temp
°C
Dew
Point
Rel
Hum
%
Delta-T
°C
Wind Press
QNH
hPa
Press
MSL
hPa
Rain
since 9 am
mm
Dir
 
Spd
km/h
Gust
km/h
Spd
kts
Gust
kts
26/05:00pm 10.2 8.1 6.0 75 2.0 SE 6 7 3 4 1024.4 1025.0 0.0
26/04:30pm 10.9 8.3 6.1 72 2.3 S 9 11 5 6 1024.4 1025.0 0.0
26/04:00pm 11.5 9.4 6.0 69 2.6 SSW 6 7 3 4 1024.5 1025.1 0.0
26/03:30pm 11.8 9.7 5.7 66 2.9 SSW 6 9 3 5 1024.5 1025.1 0.0
26/03:00pm 12.0 9.4 5.9 66 2.9 S 9 13 5 7 1024.4 1025.0 0.0
26/02:30pm 12.2 9.5 5.6 64 3.2 WSW 9 13 5 7 1024.5 1025.1 0.0
26/02:00pm 12.6 9.1 5.5 62 3.4 W 13 20 7 11 1024.6 1025.2 0.0
26/01:30pm 11.7 7.7 5.1 64 3.1 WSW 15 24 8 13 1024.7 1025.3 0.0
26/01:00pm 12.9 9.5 6.0 63 3.3 WSW 13 20 7 11 1024.9 1025.6 0.0
26/12:30pm 13.2 9.7 5.6 60 3.7 W 13 20 7 11 1025.1 1025.8 0.0
26/12:00pm 12.9 9.1 6.0 63 3.3 W 15 24 8 13 1025.5 1026.2 0.0
26/11:30am 12.3 7.6 5.9 65 3.1 W 20 28 11 15 1025.9 1026.6 0.0
26/11:00am 11.9 7.9 6.6 70 2.6 W 17 28 9 15 1026.3 1026.9 0.0
26/10:30am 11.7 8.5 7.0 73 2.3 W 13 20 7 11 1026.5 1027.1 0.0
26/10:00am 10.8 8.0 7.1 78 1.8 W 11 17 6 9 1026.5 1027.1 0.0
26/09:30am 10.0 7.8 7.9 87 1.0 W 9 11 5 6 1026.6 1027.2 0.0
26/09:00am 9.0 7.1 9.0 100 0.0 W 9 13 5 7 1026.5 1027.1 0.0
26/08:30am 5.8 3.7 5.8 100 0.0 SW 6 9 3 5 1026.5 1027.1 0.0
26/08:00am 3.8 1.3 3.7 99 0.0 NW 6 11 3 6 1026.5 1027.1 0.0
26/07:30am 3.5 1.3 3.4 99 0.0 E 4 7 2 4 1026.4 1027.0 0.0
26/07:00am 3.2 0.4 3.1 99 0.0 N 7 15 4 8 1026.0 1026.7 0.0
26/06:30am 4.9 3.0 4.9 100 0.0 ENE 4 15 2 8 1025.8 1026.5 0.0
26/06:00am 3.7 1.2 3.6 99 0.0 E 6 6 3 3 1025.6 1026.3 0.0
26/05:30am 4.6 1.7 4.5 99 0.0 WNW 9 15 5 8 1025.4 1026.1 0.0
26/05:00am 2.9 0.0 2.8 99 0.0 E 7 11 4 6 1025.4 1026.1 0.0
26/04:30am 2.3 -0.7 2.2 99 0.0 ESE 7 13 4 7 1025.4 1026.1 0.0
26/04:00am 4.3 1.7 4.2 99 0.0 W 7 11 4 6 1025.2 1025.9 0.0
26/03:30am 5.8 3.1 5.7 99 0.0 WNW 9 11 5 6 1025.4 1026.1 0.0
26/03:00am 6.3 3.7 6.2 99 0.0 WNW 9 11 5 6 1025.6 1026.3 0.0
26/02:30am 6.0 3.7 5.9 99 0.0 N 7 9 4 5 1025.7 1026.4 0.0
26/02:00am 5.9 3.6 5.8 99 0.0 NE 7 9 4 5 1025.7 1026.4 0.0
26/01:30am 5.7 3.6 5.6 99 0.0 ENE 6 7 3 4 1025.6 1026.3 0.0
26/01:00am 5.6 3.3 5.5 99 0.0 NE 7 11 4 6 1025.7 1026.4 0.0
26/12:30am 4.3 1.9 4.2 99 0.0 ENE 6 7 3 4 1025.7 1026.4 0.0
26/12:00am 4.3 1.9 4.2 99 0.0 NE 6 7 3 4 1025.8 1026.5 0.0
 
Date/Time
EST
Temp
°C
App
Temp
°C
Dew
Point
Rel
Hum
%
Delta-T
°C
Wind Press
QNH
hPa
Press
MSL
hPa
Rain
since 9 am
mm
Dir
 
Spd
km/h
Gust
km/h
Spd
kts
Gust
kts
25/11:30pm 4.5 2.1 4.4 99 0.0 ESE 6 7 3 4 1025.8 1026.5 0.0
25/11:00pm 3.5 2.1 3.4 99 0.0 CALM 0 6 0 3 1025.9 1026.6 0.0
25/10:30pm 3.7 0.6 3.6 99 0.0 NNW 9 11 5 6 1026.0 1026.7 0.0
25/10:00pm 3.6 2.2 3.5 99 0.0 CALM 0 0 0 0 1026.3 1026.9 0.0
25/09:30pm 4.3 1.7 4.2 99 0.0 NE 7 11 4 6 1026.4 1027.0 0.0
25/09:00pm 4.3 1.3 4.2 99 0.0 NE 9 13 5 7 1026.3 1026.9 0.0
25/08:30pm 4.7 2.2 4.6 99 0.0 NE 7 11 4 6 1026.4 1027.0 0.0
25/08:00pm 5.0 2.5 4.9 99 0.0 NNE 7 11 4 6 1026.5 1027.1 0.0
25/07:30pm 4.3 1.7 4.2 99 0.0 E 7 9 4 5 1026.5 1027.1 0.0
25/07:00pm 3.8 2.4 3.5 98 0.1 CALM 0 0 0 0 1026.3 1026.9 0.0
25/06:30pm 4.1 2.7 3.4 95 0.3 CALM 0 0 0 0 1026.3 1026.9 0.0
25/06:00pm 5.0 2.8 3.3 89 0.7 NE 4 7 2 4 1026.2 1026.8 0.0
25/05:30pm 6.1 3.5 4.1 87 0.9 N 7 11 4 6 1025.8 1026.5 0.0
25/05:00pm 6.2 3.5 3.7 84 1.1 N 7 9 4 5 1025.7 1026.4 0.0
25/04:30pm 7.5 4.9 4.3 80 1.4 N 7 11 4 6 1025.6 1026.3 0.0
25/04:00pm 9.5 6.7 5.1 74 2.0 WNW 9 13 5 7 1025.7 1026.4 0.0
25/03:30pm 9.3 5.6 4.7 73 2.1 WNW 13 17 7 9 1025.9 1026.6 0.0
25/03:00pm 8.7 6.9 5.6 81 1.4 N 4 6 2 3 1026.0 1026.7 0.0
25/02:30pm 8.7 6.0 5.6 81 1.4 N 9 13 5 7 1026.0 1026.7 0.0
25/02:00pm 8.7 6.0 5.4 80 1.5 NNW 9 13 5 7 1026.2 1026.8 0.0
25/01:30pm 8.6 5.5 5.5 81 1.4 NNW 11 15 6 8 1026.4 1027.0 0.0
25/01:00pm 9.0 5.5 5.6 79 1.6 NNW 13 17 7 9 1026.6 1027.2 0.0
25/12:30pm 9.1 5.2 5.5 78 1.7 N 15 19 8 10 1026.7 1027.4 0.0
25/12:00pm 10.1 6.5 4.9 70 2.4 NW 13 17 7 9 1026.9 1027.6 0.0
25/11:30am 10.1 6.9 5.3 72 2.2 WNW 11 19 6 10 1027.2 1027.9 0.0
25/11:00am 9.4 7.2 7.8 90 0.8 NW 9 15 5 8 1027.7 1028.4 0.0
25/10:30am 7.4 5.7 7.4 100 0.0 N 6 7 3 4 1028.0 1028.7 0.0
25/10:00am 4.8 3.3 4.8 100 0.0 NNE 2 6 1 3 1027.9 1028.6 0.0
25/09:30am 3.4 2.0 3.4 100 0.0 CALM 0 0 0 0 1027.9 1028.6 0.0
25/09:00am 1.9 0.2 1.9 100 0.0 CALM 0 0 0 0 1027.9 1028.6 0.2
25/08:30am 1.2 -0.6 1.2 100 0.0 CALM 0 0 0 0 1028.0 1028.7 0.2
25/08:00am 0.1 -2.6 0.1 100 0.0 N 4 6 2 3 1028.1 1028.8 0.2
25/07:30am -0.5 -2.9 -0.5 100 0.0 N 2 6 1 3 1028.0 1028.7 0.2
25/07:00am -1.1 -4.6 -1.2 99 0.0 NNW 7 9 4 5 1027.8 1028.5 0.2
25/06:30am -0.4 -2.5 -0.5 99 0.0 CALM 0 0 0 0 1027.7 1028.4 0.2
25/06:00am 0.3 -1.6 0.3 100 0.0 CALM 0 0 0 0 1027.4 1028.1 0.2
25/05:30am 0.7 -1.2 0.7 100 0.0 CALM 0 0 0 0 1027.4 1028.1 0.2
25/05:00am -0.1 -2.1 -0.2 99 0.0 CALM 0 0 0 0 1027.6 1028.3 0.2
25/04:30am -1.0 -3.1 -1.1 99 0.0 CALM 0 0 0 0 1027.7 1028.4 0.2
25/04:00am -0.6 -2.7 -0.7 99 0.0 CALM 0 7 0 4 1027.8 1028.5 0.2
25/03:30am -0.9 -4.2 -1.0 99 0.0 WNW 6 6 3 3 1027.8 1028.5 0.2
25/03:00am -2.4 -4.7 -2.5 99 -0.1 CALM 0 4 0 2 1027.9 1028.6 0.2
25/02:30am -2.1 -4.8 -2.2 99 -0.1 WNW 2 7 1 4 1028.2 1028.9 0.2
25/02:00am -1.5 -3.7 -1.6 99 0.0 CALM 0 0 0 0 1028.1 1028.8 0.2
25/01:30am -1.4 -3.6 -1.5 99 0.0 CALM 0 0 0 0 1028.1 1028.8 0.2
25/01:00am -0.9 -3.0 -1.0 99 0.0 CALM 0 0 0 0 1028.1 1028.8 0.2
25/12:30am -1.1 -3.3 -1.2 99 0.0 CALM 0 0 0 0 1028.1 1028.8 0.2
25/12:00am -0.8 -2.9 -0.9 99 0.0 CALM 0 0 0 0 1028.2 1028.9 0.2
 
Date/Time
EST
Temp
°C
App
Temp
°C
Dew
Point
Rel
Hum
%
Delta-T
°C
Wind Press
QNH
hPa
Press
MSL
hPa
Rain
since 9 am
mm
Dir
 
Spd
km/h
Gust
km/h
Spd
kts
Gust
kts
24/11:30pm -0.5 -2.6 -0.6 99 0.0 CALM 0 0 0 0 1028.3 1029.0 0.2
24/11:00pm -0.4 -2.5 -0.5 99 0.0 CALM 0 0 0 0 1028.2 1028.9 0.2
24/10:30pm -0.2 -2.2 -0.3 99 0.0 CALM 0 0 0 0 1028.1 1028.8 0.2
24/10:00pm -0.1 -2.1 -0.2 99 0.0 CALM 0 0 0 0 1028.1 1028.8 0.2
24/09:30pm 0.1 -1.9 0.0 99 0.0 CALM 0 0 0 0 1028.1 1028.8 0.2
24/09:00pm 0.0 -2.0 -0.1 99 0.0 CALM 0 0 0 0 1028.2 1028.9 0.2
24/08:30pm 0.5 -1.4 0.4 99 0.0 CALM 0 0 0 0 1028.0 1028.7 0.2
24/08:00pm 0.7 -1.2 0.6 99 0.0 CALM 0 0 0 0 1028.0 1028.7 0.2
24/07:30pm 1.2 -1.4 1.1 99 0.0 SE 4 6 2 3 1028.1 1028.8 0.2
24/07:00pm 1.4 -1.6 1.0 97 0.2 E 6 7 3 4 1028.1 1028.8 0.2
24/06:30pm 2.6 1.0 2.2 97 0.2 CALM 0 4 0 2 1027.9 1028.6 0.2
24/06:00pm 2.9 0.1 1.9 93 0.4 E 6 6 3 3 1027.6 1028.3 0.2
24/05:30pm 3.7 2.1 2.2 90 0.6 CALM 0 6 0 3 1027.6 1028.3 0.2
24/05:00pm 4.4 2.8 2.4 87 0.8 CALM 0 0 0 0 1027.5 1028.2 0.2
24/04:30pm 5.0 3.3 2.0 81 1.2 CALM 0 0 0 0 1027.5 1028.2 0.2
24/04:00pm 5.8 3.4 2.1 77 1.5 N 4 7 2 4 1027.6 1028.3 0.2
24/03:30pm 6.3 3.3 2.2 75 1.7 NNW 7 9 4 5 1027.6 1028.3 0.2
24/03:00pm 7.0 3.3 2.5 73 1.9 N 11 11 6 6 1027.4 1028.1 0.2
24/02:30pm 8.4 5.6 2.2 65 2.7 NNW 6 7 3 4 1027.3 1028.0 0.2
24/02:00pm 8.5 6.5 2.1 64 2.7 N 2 6 1 3 1027.5 1028.2 0.2
24/01:30pm 7.9 5.0 1.5 64 2.7 NNW 6 9 3 5 1027.7 1028.4 0.2
24/01:00pm 7.6 4.6 1.9 67 2.4 N 7 11 4 6 1027.8 1028.5 0.2
24/12:30pm 7.4 4.0 1.9 68 2.3 N 9 11 5 6 1027.9 1028.6 0.2
24/12:00pm 7.9 5.2 2.4 68 2.3 N 6 9 3 5 1028.1 1028.8 0.2
24/11:30am 7.5 4.8 2.4 70 2.2 NNW 6 9 3 5 1028.6 1029.3 0.2
24/11:00am 6.6 4.1 3.8 82 1.2 NNW 6 9 3 5 1029.0 1029.7 0.2
24/10:30am 4.9 3.0 4.8 99 0.0 NW 4 6 2 3 1029.1 1029.8 0.2
24/10:00am 3.3 1.9 3.3 100 0.0 CALM 0 0 0 0 1029.2 1029.9 0.2
24/09:30am 0.7 -1.2 0.6 99 0.0 CALM 0 0 0 0 1029.2 1029.9 0.2
24/09:00am -1.2 -3.4 -1.3 99 0.0 CALM 0 0 0 0 1029.2 1029.9 0.0
24/08:30am -2.7 -5.1 -2.8 99 -0.1 CALM 0 0 0 0 1029.0 1029.7 0.0
24/08:00am -2.7 -5.4 -2.8 99 -0.1 SSE 2 6 1 3 1028.9 1029.6 0.0
24/07:30am -2.5 -4.8 -2.6 99 -0.1 CALM 0 0 0 0 1028.7 1029.4 0.0
24/07:00am -2.0 -5.0 -2.1 99 -0.1 SE 4 6 2 3 1028.6 1029.3 0.0
24/06:30am -1.8 -5.2 -1.9 99 0.0 SE 6 7 3 4 1028.3 1029.0 0.0
24/06:00am -2.0 -5.4 -2.1 99 -0.1 WNW 6 9 3 5 1028.3 1029.0 0.0
24/05:30am -0.5 -3.7 -0.6 99 0.0 W 6 9 3 5 1028.2 1028.9 0.0
24/05:00am -0.4 -3.6 -0.5 99 0.0 W 6 9 3 5 1027.8 1028.5 0.0
24/04:30am -0.5 -3.8 -0.9 97 0.1 WNW 6 9 3 5 1027.7 1028.4 0.0
24/04:00am -0.6 -3.2 -1.9 91 0.4 NNW 2 9 1 5 1027.7 1028.4 0.0
24/03:30am 2.1 -1.4 1.1 93 0.4 WNW 9 15 5 8 1027.7 1028.4 0.0
24/03:00am 1.5 -2.9 0.5 93 0.4 WNW 13 17 7 9 1027.9 1028.6 0.0
24/02:30am 2.0 -1.5 1.3 95 0.3 W 9 15 5 8 1028.1 1028.8 0.0
24/02:00am 1.8 -2.0 1.7 99 0.0 NW 11 15 6 8 1028.2 1028.9 0.0
24/01:30am 1.2 -2.4 0.8 97 0.2 WNW 9 13 5 7 1028.1 1028.8 0.0
24/01:00am 1.2 -2.0 0.8 97 0.2 NW 7 11 4 6 1028.2 1028.9 0.0
24/12:30am -0.4 -3.4 -1.7 91 0.4 WNW 4 11 2 6 1028.2 1028.9 0.0
24/12:00am 1.7 -2.3 0.8 94 0.3 WNW 11 13 6 7 1028.2 1028.9 0.0
 
Date/Time
EST
Temp
°C
App
Temp
°C
Dew
Point
Rel
Hum
%
Delta-T
°C
Wind Press
QNH
hPa
Press
MSL
hPa
Rain
since 9 am
mm
Dir
 
Spd
km/h
Gust
km/h
Spd
kts
Gust
kts
23/11:30pm 2.3 -1.2 1.4 94 0.4 WNW 9 11 5 6 1028.2 1028.9 0.0
23/11:00pm 1.5 -2.1 0.3 92 0.5 NW 9 11 5 6 1028.1 1028.8 0.0
23/10:30pm 2.9 -0.5 2.0 94 0.4 WNW 9 11 5 6 1028.0 1028.7 0.0
23/10:00pm 2.8 0.0 1.8 93 0.4 W 6 11 3 6 1028.2 1028.9 0.0
23/09:30pm 2.7 -0.8 1.4 91 0.5 WSW 9 13 5 7 1028.2 1028.9 0.0
23/09:00pm 3.0 -0.8 1.5 90 0.6 WSW 11 15 6 8 1028.3 1029.0 0.0
23/08:30pm 3.3 -0.5 1.8 90 0.6 SW 11 17 6 9 1028.2 1028.9 0.0
23/08:00pm 3.4 -0.5 1.4 87 0.8 WSW 11 15 6 8 1028.5 1029.2 0.0
23/07:30pm 4.1 0.7 1.6 84 1.0 W 9 15 5 8 1028.2 1028.9 0.0
23/07:00pm 4.6 0.0 1.8 82 1.1 W 15 20 8 11 1028.0 1028.7 0.0
23/06:30pm 5.3 1.2 2.0 79 1.4 W 13 20 7 11 1027.8 1028.5 0.0
23/06:00pm 5.5 0.2 1.8 77 1.5 WSW 19 24 10 13 1027.7 1028.4 0.0
23/05:30pm 5.6 1.4 1.7 76 1.6 WSW 13 20 7 11 1027.6 1028.3 0.0

Other Formats:

Comma delimited format used in spreadsheet applications
http://www.bom.gov.au/fwo/IDT60801/IDT60801.94960.axf

JavaScript Object Notation format (JSON) in row-major order
http://www.bom.gov.au/fwo/IDT60801/IDT60801.94960.json